sensor_id;sensor_type;location;lat;lon;timestamp;P1;durP1;ratioP1;P2;durP2;ratioP2
18983;SDS011;9626;52.552;13.436;2023-05-02T00:00:38;7.43;;;6.30;;
18983;SDS011;9626;52.552;13.436;2023-05-02T00:03:05;11.43;;;6.73;;
18983;SDS011;9626;52.552;13.436;2023-05-02T00:05:33;7.33;;;5.53;;
18983;SDS011;9626;52.552;13.436;2023-05-02T00:07:59;9.90;;;5.90;;
18983;SDS011;9626;52.552;13.436;2023-05-02T00:10:25;11.07;;;5.90;;
18983;SDS011;9626;52.552;13.436;2023-05-02T00:12:51;10.80;;;6.00;;
18983;SDS011;9626;52.552;13.436;2023-05-02T00:15:17;8.00;;;5.33;;
18983;SDS011;9626;52.552;13.436;2023-05-02T00:17:43;7.73;;;5.83;;
18983;SDS011;9626;52.552;13.436;2023-05-02T00:20:12;8.33;;;5.90;;
18983;SDS011;9626;52.552;13.436;2023-05-02T00:22:38;11.60;;;7.17;;
18983;SDS011;9626;52.552;13.436;2023-05-02T00:25:05;11.10;;;6.13;;
18983;SDS011;9626;52.552;13.436;2023-05-02T00:27:31;7.03;;;5.23;;
18983;SDS011;9626;52.552;13.436;2023-05-02T00:29:58;8.07;;;5.63;;
18983;SDS011;9626;52.552;13.436;2023-05-02T00:32:25;7.63;;;5.13;;
18983;SDS011;9626;52.552;13.436;2023-05-02T00:34:51;6.93;;;4.73;;
18983;SDS011;9626;52.552;13.436;2023-05-02T00:37:18;7.20;;;5.47;;
18983;SDS011;9626;52.552;13.436;2023-05-02T00:39:44;7.17;;;5.43;;
18983;SDS011;9626;52.552;13.436;2023-05-02T00:42:10;8.83;;;6.07;;
18983;SDS011;9626;52.552;13.436;2023-05-02T00:44:36;9.90;;;5.63;;
18983;SDS011;9626;52.552;13.436;2023-05-02T00:47:02;9.07;;;5.77;;
18983;SDS011;9626;52.552;13.436;2023-05-02T00:49:28;8.43;;;5.50;;
18983;SDS011;9626;52.552;13.436;2023-05-02T00:51:57;10.53;;;5.70;;
18983;SDS011;9626;52.552;13.436;2023-05-02T00:54:24;9.70;;;5.10;;
18983;SDS011;9626;52.552;13.436;2023-05-02T00:56:50;7.30;;;5.30;;
18983;SDS011;9626;52.552;13.436;2023-05-02T00:59:16;8.77;;;4.77;;
18983;SDS011;9626;52.552;13.436;2023-05-02T01:15:15;8.37;;;5.10;;
18983;SDS011;9626;52.552;13.436;2023-05-02T01:17:43;8.40;;;4.90;;
18983;SDS011;9626;52.552;13.436;2023-05-02T01:20:30;5.73;;;4.70;;
18983;SDS011;9626;52.552;13.436;2023-05-02T01:23:03;8.93;;;4.87;;
18983;SDS011;9626;52.552;13.436;2023-05-02T01:30:57;5.63;;;4.87;;
18983;SDS011;9626;52.552;13.436;2023-05-02T01:33:24;8.07;;;5.10;;
18983;SDS011;9626;52.552;13.436;2023-05-02T01:35:53;8.73;;;4.93;;
18983;SDS011;9626;52.552;13.436;2023-05-02T01:38:20;8.60;;;5.10;;
18983;SDS011;9626;52.552;13.436;2023-05-02T01:40:49;6.17;;;5.17;;
18983;SDS011;9626;52.552;13.436;2023-05-02T01:43:17;6.30;;;5.07;;
18983;SDS011;9626;52.552;13.436;2023-05-02T01:45:46;5.80;;;4.77;;
18983;SDS011;9626;52.552;13.436;2023-05-02T01:48:14;9.83;;;5.03;;
18983;SDS011;9626;52.552;13.436;2023-05-02T01:50:42;8.57;;;5.10;;
18983;SDS011;9626;52.552;13.436;2023-05-02T01:53:10;6.77;;;5.07;;
18983;SDS011;9626;52.552;13.436;2023-05-02T01:55:38;8.00;;;4.60;;
18983;SDS011;9626;52.552;13.436;2023-05-02T01:58:09;8.20;;;4.87;;
18983;SDS011;9626;52.552;13.436;2023-05-02T02:00:36;7.30;;;4.63;;
18983;SDS011;9626;52.552;13.436;2023-05-02T02:03:07;6.77;;;4.53;;
18983;SDS011;9626;52.552;13.436;2023-05-02T02:05:35;5.17;;;4.67;;
18983;SDS011;9626;52.552;13.436;2023-05-02T02:08:02;8.63;;;5.20;;
18983;SDS011;9626;52.552;13.436;2023-05-02T02:10:28;7.17;;;4.37;;
18983;SDS011;9626;52.552;13.436;2023-05-02T02:13:03;6.67;;;4.70;;
18983;SDS011;9626;52.552;13.436;2023-05-02T02:15:35;13.57;;;4.83;;
18983;SDS011;9626;52.552;13.436;2023-05-02T02:18:07;6.83;;;4.50;;
18983;SDS011;9626;52.552;13.436;2023-05-02T02:20:36;7.43;;;4.33;;
18983;SDS011;9626;52.552;13.436;2023-05-02T02:23:04;6.80;;;4.47;;
18983;SDS011;9626;52.552;13.436;2023-05-02T02:25:33;7.70;;;4.30;;
18983;SDS011;9626;52.552;13.436;2023-05-02T02:28:00;5.77;;;4.43;;
18983;SDS011;9626;52.552;13.436;2023-05-02T02:30:26;8.50;;;4.37;;
18983;SDS011;9626;52.552;13.436;2023-05-02T02:32:52;18.40;;;4.67;;
18983;SDS011;9626;52.552;13.436;2023-05-02T02:35:18;6.53;;;4.50;;
18983;SDS011;9626;52.552;13.436;2023-05-02T02:37:46;7.73;;;4.27;;
18983;SDS011;9626;52.552;13.436;2023-05-02T02:45:43;6.80;;;4.33;;
18983;SDS011;9626;52.552;13.436;2023-05-02T02:56:38;7.27;;;4.03;;
18983;SDS011;9626;52.552;13.436;2023-05-02T02:59:11;5.63;;;3.97;;
18983;SDS011;9626;52.552;13.436;2023-05-02T03:01:55;7.53;;;3.73;;
18983;SDS011;9626;52.552;13.436;2023-05-02T03:04:27;4.67;;;3.53;;
18983;SDS011;9626;52.552;13.436;2023-05-02T03:06:56;9.07;;;4.00;;
18983;SDS011;9626;52.552;13.436;2023-05-02T03:09:22;5.13;;;3.43;;
18983;SDS011;9626;52.552;13.436;2023-05-02T03:11:48;5.53;;;3.77;;
18983;SDS011;9626;52.552;13.436;2023-05-02T03:14:14;6.20;;;3.47;;
18983;SDS011;9626;52.552;13.436;2023-05-02T03:16:41;4.70;;;3.50;;
18983;SDS011;9626;52.552;13.436;2023-05-02T03:19:07;6.47;;;3.50;;
18983;SDS011;9626;52.552;13.436;2023-05-02T03:21:34;6.30;;;3.60;;
18983;SDS011;9626;52.552;13.436;2023-05-02T03:24:01;6.70;;;3.63;;
18983;SDS011;9626;52.552;13.436;2023-05-02T03:26:28;5.30;;;3.33;;
18983;SDS011;9626;52.552;13.436;2023-05-02T03:28:54;6.07;;;3.60;;
18983;SDS011;9626;52.552;13.436;2023-05-02T03:31:21;5.70;;;3.87;;
18983;SDS011;9626;52.552;13.436;2023-05-02T03:33:47;8.57;;;3.73;;
18983;SDS011;9626;52.552;13.436;2023-05-02T03:36:14;4.60;;;3.30;;
18983;SDS011;9626;52.552;13.436;2023-05-02T03:38:41;5.13;;;3.30;;
18983;SDS011;9626;52.552;13.436;2023-05-02T03:41:07;6.83;;;3.43;;
18983;SDS011;9626;52.552;13.436;2023-05-02T03:43:33;6.07;;;3.70;;
18983;SDS011;9626;52.552;13.436;2023-05-02T03:46:03;4.87;;;3.43;;
18983;SDS011;9626;52.552;13.436;2023-05-02T03:48:31;6.23;;;3.57;;
18983;SDS011;9626;52.552;13.436;2023-05-02T03:50:57;5.57;;;3.47;;
18983;SDS011;9626;52.552;13.436;2023-05-02T03:53:23;6.37;;;3.50;;
18983;SDS011;9626;52.552;13.436;2023-05-02T03:55:49;6.90;;;3.33;;
18983;SDS011;9626;52.552;13.436;2023-05-02T03:58:16;5.13;;;2.90;;
18983;SDS011;9626;52.552;13.436;2023-05-02T04:00:42;5.83;;;3.47;;
18983;SDS011;9626;52.552;13.436;2023-05-02T04:03:08;10.23;;;3.40;;
18983;SDS011;9626;52.552;13.436;2023-05-02T04:05:34;7.23;;;3.70;;
18983;SDS011;9626;52.552;13.436;2023-05-02T04:08:00;3.97;;;3.40;;
18983;SDS011;9626;52.552;13.436;2023-05-02T04:10:27;5.47;;;3.80;;
18983;SDS011;9626;52.552;13.436;2023-05-02T04:12:53;5.77;;;3.40;;
18983;SDS011;9626;52.552;13.436;2023-05-02T04:15:19;9.07;;;3.73;;
18983;SDS011;9626;52.552;13.436;2023-05-02T04:17:46;6.07;;;3.40;;
18983;SDS011;9626;52.552;13.436;2023-05-02T04:20:12;7.43;;;4.77;;
18983;SDS011;9626;52.552;13.436;2023-05-02T04:22:38;6.57;;;4.00;;
18983;SDS011;9626;52.552;13.436;2023-05-02T04:25:04;7.57;;;4.13;;
18983;SDS011;9626;52.552;13.436;2023-05-02T04:27:32;5.57;;;4.00;;
18983;SDS011;9626;52.552;13.436;2023-05-02T04:29:58;6.30;;;4.03;;
18983;SDS011;9626;52.552;13.436;2023-05-02T04:32:23;7.80;;;4.23;;
18983;SDS011;9626;52.552;13.436;2023-05-02T04:34:49;7.83;;;4.23;;
18983;SDS011;9626;52.552;13.436;2023-05-02T04:37:16;6.60;;;3.90;;
18983;SDS011;9626;52.552;13.436;2023-05-02T04:39:42;8.07;;;4.30;;
18983;SDS011;9626;52.552;13.436;2023-05-02T04:42:09;5.37;;;3.70;;
18983;SDS011;9626;52.552;13.436;2023-05-02T04:44:35;6.03;;;3.80;;
18983;SDS011;9626;52.552;13.436;2023-05-02T04:47:01;6.00;;;3.57;;
18983;SDS011;9626;52.552;13.436;2023-05-02T04:49:29;9.33;;;3.77;;
18983;SDS011;9626;52.552;13.436;2023-05-02T04:51:56;6.80;;;3.13;;
18983;SDS011;9626;52.552;13.436;2023-05-02T04:54:22;8.30;;;3.33;;
18983;SDS011;9626;52.552;13.436;2023-05-02T04:56:48;4.87;;;3.03;;
18983;SDS011;9626;52.552;13.436;2023-05-02T04:59:14;4.97;;;3.27;;
18983;SDS011;9626;52.552;13.436;2023-05-02T05:01:41;8.47;;;4.03;;
18983;SDS011;9626;52.552;13.436;2023-05-02T05:04:10;5.13;;;3.53;;
18983;SDS011;9626;52.552;13.436;2023-05-02T05:06:36;5.30;;;3.50;;
18983;SDS011;9626;52.552;13.436;2023-05-02T05:09:02;6.90;;;3.93;;
18983;SDS011;9626;52.552;13.436;2023-05-02T05:11:29;6.40;;;3.47;;
18983;SDS011;9626;52.552;13.436;2023-05-02T05:13:55;5.63;;;3.80;;
18983;SDS011;9626;52.552;13.436;2023-05-02T05:16:21;6.80;;;3.23;;
18983;SDS011;9626;52.552;13.436;2023-05-02T05:18:47;7.77;;;4.00;;
18983;SDS011;9626;52.552;13.436;2023-05-02T05:21:14;6.27;;;3.47;;
18983;SDS011;9626;52.552;13.436;2023-05-02T05:23:40;6.83;;;3.40;;
18983;SDS011;9626;52.552;13.436;2023-05-02T05:26:11;6.80;;;3.90;;
18983;SDS011;9626;52.552;13.436;2023-05-02T05:28:38;8.97;;;3.83;;
18983;SDS011;9626;52.552;13.436;2023-05-02T05:31:10;5.43;;;3.90;;
18983;SDS011;9626;52.552;13.436;2023-05-02T05:33:37;9.63;;;4.33;;
18983;SDS011;9626;52.552;13.436;2023-05-02T05:36:07;7.70;;;3.63;;
18983;SDS011;9626;52.552;13.436;2023-05-02T05:38:34;5.90;;;3.57;;
18983;SDS011;9626;52.552;13.436;2023-05-02T05:41:00;4.80;;;3.57;;
18983;SDS011;9626;52.552;13.436;2023-05-02T05:43:27;7.47;;;4.13;;
18983;SDS011;9626;52.552;13.436;2023-05-02T05:45:54;10.47;;;3.83;;
18983;SDS011;9626;52.552;13.436;2023-05-02T05:48:20;5.97;;;4.10;;
18983;SDS011;9626;52.552;13.436;2023-05-02T05:50:47;9.40;;;3.93;;
18983;SDS011;9626;52.552;13.436;2023-05-02T05:53:13;5.90;;;3.67;;
18983;SDS011;9626;52.552;13.436;2023-05-02T05:55:40;7.47;;;4.23;;
18983;SDS011;9626;52.552;13.436;2023-05-02T05:58:06;9.40;;;4.10;;
18983;SDS011;9626;52.552;13.436;2023-05-02T06:00:33;6.37;;;4.30;;
18983;SDS011;9626;52.552;13.436;2023-05-02T06:03:00;8.87;;;4.37;;
18983;SDS011;9626;52.552;13.436;2023-05-02T06:05:26;7.40;;;4.77;;
18983;SDS011;9626;52.552;13.436;2023-05-02T06:07:52;7.70;;;5.03;;
18983;SDS011;9626;52.552;13.436;2023-05-02T06:10:19;11.80;;;5.00;;
18983;SDS011;9626;52.552;13.436;2023-05-02T06:12:47;9.33;;;4.60;;
18983;SDS011;9626;52.552;13.436;2023-05-02T06:15:13;6.97;;;4.40;;
18983;SDS011;9626;52.552;13.436;2023-05-02T06:17:40;8.53;;;4.60;;
18983;SDS011;9626;52.552;13.436;2023-05-02T06:20:06;8.13;;;5.43;;
18983;SDS011;9626;52.552;13.436;2023-05-02T06:22:32;10.53;;;5.43;;
18983;SDS011;9626;52.552;13.436;2023-05-02T06:24:58;10.30;;;5.57;;
18983;SDS011;9626;52.552;13.436;2023-05-02T06:27:25;8.43;;;5.13;;
18983;SDS011;9626;52.552;13.436;2023-05-02T06:29:51;10.83;;;6.70;;
18983;SDS011;9626;52.552;13.436;2023-05-02T06:32:18;8.43;;;6.10;;
18983;SDS011;9626;52.552;13.436;2023-05-02T06:34:44;8.43;;;5.80;;
18983;SDS011;9626;52.552;13.436;2023-05-02T06:37:10;12.90;;;7.03;;
18983;SDS011;9626;52.552;13.436;2023-05-02T06:39:36;16.13;;;7.90;;
18983;SDS011;9626;52.552;13.436;2023-05-02T06:42:02;10.50;;;7.20;;
18983;SDS011;9626;52.552;13.436;2023-05-02T06:44:29;15.03;;;8.27;;
18983;SDS011;9626;52.552;13.436;2023-05-02T06:46:55;10.07;;;7.37;;
18983;SDS011;9626;52.552;13.436;2023-05-02T06:49:21;10.57;;;7.60;;
18983;SDS011;9626;52.552;13.436;2023-05-02T06:51:47;12.03;;;7.77;;
18983;SDS011;9626;52.552;13.436;2023-05-02T06:54:13;12.93;;;7.90;;
18983;SDS011;9626;52.552;13.436;2023-05-02T06:56:40;11.13;;;7.30;;
18983;SDS011;9626;52.552;13.436;2023-05-02T06:59:07;11.10;;;7.77;;
18983;SDS011;9626;52.552;13.436;2023-05-02T07:01:33;11.90;;;6.50;;
18983;SDS011;9626;52.552;13.436;2023-05-02T07:03:59;12.00;;;7.27;;
18983;SDS011;9626;52.552;13.436;2023-05-02T07:06:26;10.97;;;6.67;;
18983;SDS011;9626;52.552;13.436;2023-05-02T07:08:52;13.37;;;6.97;;
18983;SDS011;9626;52.552;13.436;2023-05-02T07:11:18;10.70;;;5.93;;
18983;SDS011;9626;52.552;13.436;2023-05-02T07:13:46;9.57;;;6.77;;
18983;SDS011;9626;52.552;13.436;2023-05-02T07:16:12;7.27;;;6.00;;
18983;SDS011;9626;52.552;13.436;2023-05-02T07:18:38;8.93;;;6.30;;
18983;SDS011;9626;52.552;13.436;2023-05-02T07:21:04;9.00;;;6.40;;
18983;SDS011;9626;52.552;13.436;2023-05-02T07:23:30;8.87;;;6.30;;
18983;SDS011;9626;52.552;13.436;2023-05-02T07:25:56;8.00;;;5.60;;
18983;SDS011;9626;52.552;13.436;2023-05-02T07:28:22;7.33;;;6.13;;
18983;SDS011;9626;52.552;13.436;2023-05-02T07:30:48;7.57;;;6.00;;
18983;SDS011;9626;52.552;13.436;2023-05-02T07:33:15;6.43;;;5.40;;
18983;SDS011;9626;52.552;13.436;2023-05-02T07:35:41;7.90;;;5.77;;
18983;SDS011;9626;52.552;13.436;2023-05-02T07:38:07;8.40;;;5.80;;
18983;SDS011;9626;52.552;13.436;2023-05-02T07:40:33;11.13;;;5.57;;
18983;SDS011;9626;52.552;13.436;2023-05-02T07:42:59;9.03;;;6.07;;
18983;SDS011;9626;52.552;13.436;2023-05-02T07:45:26;6.50;;;5.50;;
18983;SDS011;9626;52.552;13.436;2023-05-02T07:47:52;7.07;;;5.63;;
18983;SDS011;9626;52.552;13.436;2023-05-02T07:50:18;7.63;;;6.13;;
18983;SDS011;9626;52.552;13.436;2023-05-02T07:52:44;10.17;;;6.37;;
18983;SDS011;9626;52.552;13.436;2023-05-02T07:55:10;9.07;;;6.03;;
18983;SDS011;9626;52.552;13.436;2023-05-02T07:57:36;9.73;;;5.63;;
18983;SDS011;9626;52.552;13.436;2023-05-02T08:00:03;7.50;;;5.20;;
18983;SDS011;9626;52.552;13.436;2023-05-02T08:02:32;7.60;;;5.47;;
18983;SDS011;9626;52.552;13.436;2023-05-02T08:04:58;6.17;;;4.97;;
18983;SDS011;9626;52.552;13.436;2023-05-02T08:07:24;7.07;;;5.10;;
18983;SDS011;9626;52.552;13.436;2023-05-02T08:09:50;7.60;;;5.80;;
18983;SDS011;9626;52.552;13.436;2023-05-02T08:12:16;9.57;;;5.33;;
18983;SDS011;9626;52.552;13.436;2023-05-02T08:14:43;5.03;;;4.53;;
18983;SDS011;9626;52.552;13.436;2023-05-02T08:17:09;6.13;;;4.17;;
18983;SDS011;9626;52.552;13.436;2023-05-02T08:19:35;4.70;;;4.03;;
18983;SDS011;9626;52.552;13.436;2023-05-02T08:22:01;6.33;;;3.50;;
18983;SDS011;9626;52.552;13.436;2023-05-02T08:24:27;3.53;;;2.93;;
18983;SDS011;9626;52.552;13.436;2023-05-02T08:26:54;4.27;;;3.13;;
18983;SDS011;9626;52.552;13.436;2023-05-02T08:29:20;7.60;;;3.20;;
18983;SDS011;9626;52.552;13.436;2023-05-02T08:31:46;3.30;;;2.83;;
18983;SDS011;9626;52.552;13.436;2023-05-02T08:34:12;3.77;;;3.20;;
18983;SDS011;9626;52.552;13.436;2023-05-02T08:36:38;4.27;;;3.20;;
18983;SDS011;9626;52.552;13.436;2023-05-02T08:39:04;5.03;;;4.00;;
18983;SDS011;9626;52.552;13.436;2023-05-02T08:41:32;8.33;;;4.20;;
18983;SDS011;9626;52.552;13.436;2023-05-02T08:43:58;14.00;;;4.10;;
18983;SDS011;9626;52.552;13.436;2023-05-02T08:46:25;4.10;;;3.70;;
18983;SDS011;9626;52.552;13.436;2023-05-02T08:48:53;7.90;;;3.33;;
18983;SDS011;9626;52.552;13.436;2023-05-02T08:51:23;4.20;;;3.80;;
18983;SDS011;9626;52.552;13.436;2023-05-02T08:53:50;7.90;;;4.10;;
18983;SDS011;9626;52.552;13.436;2023-05-02T08:56:17;4.73;;;3.93;;
18983;SDS011;9626;52.552;13.436;2023-05-02T08:58:45;8.17;;;3.90;;
18983;SDS011;9626;52.552;13.436;2023-05-02T09:01:14;4.97;;;4.23;;
18983;SDS011;9626;52.552;13.436;2023-05-02T09:03:42;8.77;;;4.10;;
18983;SDS011;9626;52.552;13.436;2023-05-02T09:08:41;7.20;;;4.10;;
18983;SDS011;9626;52.552;13.436;2023-05-02T09:11:09;7.00;;;4.73;;
18983;SDS011;9626;52.552;13.436;2023-05-02T09:13:37;5.77;;;4.43;;
18983;SDS011;9626;52.552;13.436;2023-05-02T09:16:12;6.93;;;4.77;;
18983;SDS011;9626;52.552;13.436;2023-05-02T09:18:48;5.50;;;4.10;;
18983;SDS011;9626;52.552;13.436;2023-05-02T09:21:16;6.57;;;4.30;;
18983;SDS011;9626;52.552;13.436;2023-05-02T09:23:43;6.97;;;4.10;;
18983;SDS011;9626;52.552;13.436;2023-05-02T09:26:12;8.40;;;4.37;;
18983;SDS011;9626;52.552;13.436;2023-05-02T09:28:41;10.90;;;4.50;;
18983;SDS011;9626;52.552;13.436;2023-05-02T09:31:13;6.37;;;4.30;;
18983;SDS011;9626;52.552;13.436;2023-05-02T09:33:41;4.90;;;4.40;;
18983;SDS011;9626;52.552;13.436;2023-05-02T09:36:09;5.03;;;4.37;;
18983;SDS011;9626;52.552;13.436;2023-05-02T09:38:39;5.60;;;4.20;;
18983;SDS011;9626;52.552;13.436;2023-05-02T09:41:06;5.73;;;3.70;;
18983;SDS011;9626;52.552;13.436;2023-05-02T09:43:32;5.17;;;4.13;;
18983;SDS011;9626;52.552;13.436;2023-05-02T09:45:59;6.83;;;4.37;;
18983;SDS011;9626;52.552;13.436;2023-05-02T09:48:27;5.90;;;4.27;;
18983;SDS011;9626;52.552;13.436;2023-05-02T09:50:54;8.63;;;4.50;;
18983;SDS011;9626;52.552;13.436;2023-05-02T09:53:21;5.77;;;4.20;;
18983;SDS011;9626;52.552;13.436;2023-05-02T09:55:58;6.17;;;4.00;;
18983;SDS011;9626;52.552;13.436;2023-05-02T09:58:27;5.90;;;4.13;;
18983;SDS011;9626;52.552;13.436;2023-05-02T10:00:56;6.00;;;3.90;;
18983;SDS011;9626;52.552;13.436;2023-05-02T10:03:23;4.17;;;3.30;;
18983;SDS011;9626;52.552;13.436;2023-05-02T10:05:51;4.23;;;3.30;;
18983;SDS011;9626;52.552;13.436;2023-05-02T10:08:20;3.93;;;2.60;;
18983;SDS011;9626;52.552;13.436;2023-05-02T10:10:51;4.83;;;2.90;;
18983;SDS011;9626;52.552;13.436;2023-05-02T10:13:22;4.77;;;2.63;;
18983;SDS011;9626;52.552;13.436;2023-05-02T10:15:58;3.57;;;2.50;;
18983;SDS011;9626;52.552;13.436;2023-05-02T10:18:31;3.97;;;3.10;;
18983;SDS011;9626;52.552;13.436;2023-05-02T10:21:07;4.30;;;3.50;;
18983;SDS011;9626;52.552;13.436;2023-05-02T10:23:35;3.33;;;2.90;;
18983;SDS011;9626;52.552;13.436;2023-05-02T10:26:03;5.17;;;3.00;;
18983;SDS011;9626;52.552;13.436;2023-05-02T10:28:29;3.90;;;2.90;;
18983;SDS011;9626;52.552;13.436;2023-05-02T10:30:55;5.87;;;3.10;;
18983;SDS011;9626;52.552;13.436;2023-05-02T10:33:23;4.00;;;3.27;;
18983;SDS011;9626;52.552;13.436;2023-05-02T10:35:49;7.83;;;2.87;;
18983;SDS011;9626;52.552;13.436;2023-05-02T10:38:19;8.47;;;3.17;;
18983;SDS011;9626;52.552;13.436;2023-05-02T10:40:47;5.03;;;2.90;;
18983;SDS011;9626;52.552;13.436;2023-05-02T10:43:24;4.80;;;2.33;;
18983;SDS011;9626;52.552;13.436;2023-05-02T10:45:52;3.80;;;2.50;;
18983;SDS011;9626;52.552;13.436;2023-05-02T10:48:20;4.63;;;2.57;;
18983;SDS011;9626;52.552;13.436;2023-05-02T10:50:51;3.37;;;2.40;;
18983;SDS011;9626;52.552;13.436;2023-05-02T10:53:22;6.03;;;2.33;;
18983;SDS011;9626;52.552;13.436;2023-05-02T10:58:34;6.70;;;2.77;;
18983;SDS011;9626;52.552;13.436;2023-05-02T11:03:58;8.60;;;3.50;;
18983;SDS011;9626;52.552;13.436;2023-05-02T11:06:29;8.03;;;3.87;;
18983;SDS011;9626;52.552;13.436;2023-05-02T11:11:43;9.87;;;4.60;;
18983;SDS011;9626;52.552;13.436;2023-05-02T11:14:10;7.03;;;4.70;;
18983;SDS011;9626;52.552;13.436;2023-05-02T11:20:17;7.97;;;4.20;;
18983;SDS011;9626;52.552;13.436;2023-05-02T11:22:29;12.17;;;4.90;;
18983;SDS011;9626;52.552;13.436;2023-05-02T11:24:55;7.73;;;4.40;;
18983;SDS011;9626;52.552;13.436;2023-05-02T11:29:54;9.97;;;4.50;;
18983;SDS011;9626;52.552;13.436;2023-05-02T11:32:20;11.30;;;4.50;;
18983;SDS011;9626;52.552;13.436;2023-05-02T11:34:50;12.03;;;4.03;;
18983;SDS011;9626;52.552;13.436;2023-05-02T11:37:19;8.87;;;4.00;;
18983;SDS011;9626;52.552;13.436;2023-05-02T11:39:45;10.33;;;3.90;;
18983;SDS011;9626;52.552;13.436;2023-05-02T11:42:29;8.17;;;3.33;;
18983;SDS011;9626;52.552;13.436;2023-05-02T11:44:57;7.23;;;3.47;;
18983;SDS011;9626;52.552;13.436;2023-05-02T11:47:25;5.57;;;3.23;;
18983;SDS011;9626;52.552;13.436;2023-05-02T11:49:55;13.00;;;4.30;;
18983;SDS011;9626;52.552;13.436;2023-05-02T11:52:22;6.57;;;2.80;;
18983;SDS011;9626;52.552;13.436;2023-05-02T11:54:52;7.53;;;3.33;;
18983;SDS011;9626;52.552;13.436;2023-05-02T11:57:20;6.93;;;2.97;;
18983;SDS011;9626;52.552;13.436;2023-05-02T12:02:16;4.57;;;2.57;;
18983;SDS011;9626;52.552;13.436;2023-05-02T12:04:42;6.30;;;2.80;;
18983;SDS011;9626;52.552;13.436;2023-05-02T12:07:11;6.57;;;2.47;;
18983;SDS011;9626;52.552;13.436;2023-05-02T12:09:50;6.87;;;2.77;;
18983;SDS011;9626;52.552;13.436;2023-05-02T12:12:20;7.90;;;2.77;;
18983;SDS011;9626;52.552;13.436;2023-05-02T12:14:48;8.37;;;3.00;;
18983;SDS011;9626;52.552;13.436;2023-05-02T12:17:14;10.00;;;3.10;;
18983;SDS011;9626;52.552;13.436;2023-05-02T12:19:41;6.43;;;2.57;;
18983;SDS011;9626;52.552;13.436;2023-05-02T12:22:08;6.80;;;2.67;;
18983;SDS011;9626;52.552;13.436;2023-05-02T12:24:35;5.97;;;2.83;;
18983;SDS011;9626;52.552;13.436;2023-05-02T12:27:07;6.07;;;2.30;;
18983;SDS011;9626;52.552;13.436;2023-05-02T12:29:42;7.40;;;2.63;;
18983;SDS011;9626;52.552;13.436;2023-05-02T12:32:10;11.27;;;3.10;;
18983;SDS011;9626;52.552;13.436;2023-05-02T12:34:37;10.07;;;3.10;;
18983;SDS011;9626;52.552;13.436;2023-05-02T12:37:04;21.80;;;4.13;;
18983;SDS011;9626;52.552;13.436;2023-05-02T12:39:38;9.73;;;3.00;;
18983;SDS011;9626;52.552;13.436;2023-05-02T12:42:08;11.97;;;3.33;;
18983;SDS011;9626;52.552;13.436;2023-05-02T12:44:37;8.70;;;3.30;;
18983;SDS011;9626;52.552;13.436;2023-05-02T12:47:04;9.33;;;2.93;;
18983;SDS011;9626;52.552;13.436;2023-05-02T12:49:30;7.40;;;2.83;;
18983;SDS011;9626;52.552;13.436;2023-05-02T12:51:56;13.83;;;3.60;;
18983;SDS011;9626;52.552;13.436;2023-05-02T12:54:22;11.00;;;3.50;;
18983;SDS011;9626;52.552;13.436;2023-05-02T12:56:49;9.40;;;3.07;;
18983;SDS011;9626;52.552;13.436;2023-05-02T13:01:56;9.07;;;3.03;;
18983;SDS011;9626;52.552;13.436;2023-05-02T13:04:35;8.60;;;3.20;;
18983;SDS011;9626;52.552;13.436;2023-05-02T13:07:03;11.17;;;3.50;;
18983;SDS011;9626;52.552;13.436;2023-05-02T13:09:30;8.27;;;3.57;;
18983;SDS011;9626;52.552;13.436;2023-05-02T13:11:56;8.90;;;2.80;;
18983;SDS011;9626;52.552;13.436;2023-05-02T13:14:24;10.07;;;2.73;;
18983;SDS011;9626;52.552;13.436;2023-05-02T13:16:50;10.63;;;3.00;;
18983;SDS011;9626;52.552;13.436;2023-05-02T13:19:20;10.33;;;3.40;;
18983;SDS011;9626;52.552;13.436;2023-05-02T13:21:46;10.40;;;2.93;;
18983;SDS011;9626;52.552;13.436;2023-05-02T13:24:13;8.77;;;3.07;;
18983;SDS011;9626;52.552;13.436;2023-05-02T13:26:39;11.57;;;3.27;;
18983;SDS011;9626;52.552;13.436;2023-05-02T13:29:09;7.93;;;3.20;;
18983;SDS011;9626;52.552;13.436;2023-05-02T13:31:37;8.83;;;2.87;;
18983;SDS011;9626;52.552;13.436;2023-05-02T13:34:03;8.63;;;3.30;;
18983;SDS011;9626;52.552;13.436;2023-05-02T13:36:30;10.13;;;3.10;;
18983;SDS011;9626;52.552;13.436;2023-05-02T13:38:56;7.90;;;2.90;;
18983;SDS011;9626;52.552;13.436;2023-05-02T13:41:22;13.83;;;2.73;;
18983;SDS011;9626;52.552;13.436;2023-05-02T13:43:51;7.07;;;2.83;;
18983;SDS011;9626;52.552;13.436;2023-05-02T13:46:18;5.90;;;2.60;;
18983;SDS011;9626;52.552;13.436;2023-05-02T13:48:44;6.73;;;2.83;;
18983;SDS011;9626;52.552;13.436;2023-05-02T13:51:10;5.43;;;3.60;;
18983;SDS011;9626;52.552;13.436;2023-05-02T13:53:36;7.70;;;3.10;;
18983;SDS011;9626;52.552;13.436;2023-05-02T13:56:03;7.63;;;3.20;;
18983;SDS011;9626;52.552;13.436;2023-05-02T13:58:29;7.33;;;2.70;;
18983;SDS011;9626;52.552;13.436;2023-05-02T14:00:55;15.87;;;3.20;;
18983;SDS011;9626;52.552;13.436;2023-05-02T14:03:21;8.63;;;3.03;;
18983;SDS011;9626;52.552;13.436;2023-05-02T14:05:47;8.90;;;3.20;;
18983;SDS011;9626;52.552;13.436;2023-05-02T14:08:13;6.03;;;2.90;;
18983;SDS011;9626;52.552;13.436;2023-05-02T14:10:42;5.43;;;2.77;;
18983;SDS011;9626;52.552;13.436;2023-05-02T14:13:09;7.20;;;3.03;;
18983;SDS011;9626;52.552;13.436;2023-05-02T14:15:36;7.90;;;2.73;;
18983;SDS011;9626;52.552;13.436;2023-05-02T14:18:02;5.37;;;2.90;;
18983;SDS011;9626;52.552;13.436;2023-05-02T14:20:28;12.50;;;3.30;;
18983;SDS011;9626;52.552;13.436;2023-05-02T14:22:54;7.63;;;2.63;;
18983;SDS011;9626;52.552;13.436;2023-05-02T14:25:20;6.43;;;2.90;;
18983;SDS011;9626;52.552;13.436;2023-05-02T14:27:46;7.80;;;3.23;;
18983;SDS011;9626;52.552;13.436;2023-05-02T14:30:12;6.00;;;2.77;;
18983;SDS011;9626;52.552;13.436;2023-05-02T14:32:38;9.20;;;3.20;;
18983;SDS011;9626;52.552;13.436;2023-05-02T14:35:05;8.27;;;2.70;;
18983;SDS011;9626;52.552;13.436;2023-05-02T14:37:31;8.10;;;2.70;;
18983;SDS011;9626;52.552;13.436;2023-05-02T14:39:57;9.13;;;3.20;;
18983;SDS011;9626;52.552;13.436;2023-05-02T14:42:24;7.23;;;3.10;;
18983;SDS011;9626;52.552;13.436;2023-05-02T14:44:50;6.67;;;2.70;;
18983;SDS011;9626;52.552;13.436;2023-05-02T14:47:17;7.87;;;2.53;;
18983;SDS011;9626;52.552;13.436;2023-05-02T14:49:43;7.73;;;2.60;;
18983;SDS011;9626;52.552;13.436;2023-05-02T14:52:12;7.23;;;2.63;;
18983;SDS011;9626;52.552;13.436;2023-05-02T14:54:38;6.43;;;2.30;;
18983;SDS011;9626;52.552;13.436;2023-05-02T14:57:04;7.80;;;2.53;;
18983;SDS011;9626;52.552;13.436;2023-05-02T14:59:30;6.97;;;2.63;;
18983;SDS011;9626;52.552;13.436;2023-05-02T15:01:57;10.20;;;2.87;;
18983;SDS011;9626;52.552;13.436;2023-05-02T15:04:25;9.10;;;2.40;;
18983;SDS011;9626;52.552;13.436;2023-05-02T15:06:52;4.93;;;2.60;;
18983;SDS011;9626;52.552;13.436;2023-05-02T15:09:19;8.83;;;2.70;;
18983;SDS011;9626;52.552;13.436;2023-05-02T15:11:45;10.17;;;3.27;;
18983;SDS011;9626;52.552;13.436;2023-05-02T15:14:11;11.00;;;2.83;;
18983;SDS011;9626;52.552;13.436;2023-05-02T15:16:38;7.17;;;2.60;;
18983;SDS011;9626;52.552;13.436;2023-05-02T15:19:04;8.77;;;2.80;;
18983;SDS011;9626;52.552;13.436;2023-05-02T15:21:30;6.03;;;2.90;;
18983;SDS011;9626;52.552;13.436;2023-05-02T15:23:57;9.07;;;3.13;;
18983;SDS011;9626;52.552;13.436;2023-05-02T15:26:23;7.20;;;2.77;;
18983;SDS011;9626;52.552;13.436;2023-05-02T15:28:50;6.60;;;2.80;;
18983;SDS011;9626;52.552;13.436;2023-05-02T15:31:16;7.07;;;2.87;;
18983;SDS011;9626;52.552;13.436;2023-05-02T15:33:42;5.40;;;2.80;;
18983;SDS011;9626;52.552;13.436;2023-05-02T15:36:08;10.10;;;3.03;;
18983;SDS011;9626;52.552;13.436;2023-05-02T15:38:35;9.47;;;2.50;;
18983;SDS011;9626;52.552;13.436;2023-05-02T15:41:04;7.70;;;3.10;;